createdAt,value
2023-01-13T00:01:09.771Z,100294.38
2023-01-13T00:03:36.720Z,100299.72
2023-01-13T00:06:03.468Z,100288.75
2023-01-13T00:08:30.204Z,100288.16
2023-01-13T00:10:56.581Z,100281.41
2023-01-13T00:13:26.572Z,100283.38
2023-01-13T00:16:03.224Z,100288.72
2023-01-13T00:18:29.934Z,100291.56
2023-01-13T00:21:00.279Z,100286.38
2023-01-13T00:23:28.670Z,100285.75
2023-01-13T00:25:59.315Z,100289.41
2023-01-13T00:28:26.123Z,100289.56
2023-01-13T00:30:52.522Z,100293.22
2023-01-13T00:33:19.215Z,100295.88
2023-01-13T00:35:45.577Z,100292.59
2023-01-13T00:38:11.914Z,100296.94
2023-01-13T00:40:38.260Z,100285.59
2023-01-13T00:43:22.770Z,100282.91
2023-01-13T00:45:51.437Z,100285.69
2023-01-13T00:48:19.527Z,100279.72
2023-01-13T00:50:46.524Z,100265.91
2023-01-13T00:53:13.907Z,100267.00
2023-01-13T00:55:40.475Z,100254.94
2023-01-13T00:58:06.904Z,100256.72
2023-01-13T01:00:33.303Z,100252.53
2023-01-13T01:02:59.893Z,100255.94
2023-01-13T01:05:26.315Z,100251.59
2023-01-13T01:07:52.663Z,100255.78
2023-01-13T01:10:19.131Z,100248.94
2023-01-13T01:12:45.547Z,100248.16
2023-01-13T01:15:12.046Z,100254.25
2023-01-13T01:17:38.401Z,100244.88
2023-01-13T01:20:05.280Z,100239.69
2023-01-13T01:22:31.692Z,100242.34
2023-01-13T01:24:58.241Z,100239.09
2023-01-13T01:27:24.608Z,100231.34
2023-01-13T01:29:51.000Z,100229.63
2023-01-13T01:32:17.415Z,100231.41
2023-01-13T01:34:43.845Z,100227.16
2023-01-13T01:37:10.233Z,100249.53
2023-01-13T01:39:36.600Z,100245.19
2023-01-13T01:42:26.181Z,100265.06
2023-01-13T01:44:59.520Z,100267.50
2023-01-13T01:47:27.847Z,100264.84
2023-01-13T01:49:56.093Z,100265.78
2023-01-13T01:52:44.379Z,100264.91
2023-01-13T01:55:17.997Z,100265.91
2023-01-13T01:58:15.380Z,100264.91
2023-01-13T02:00:42.051Z,100258.22
2023-01-13T02:03:09.839Z,100251.34
2023-01-13T02:05:36.564Z,100254.94
2023-01-13T02:08:03.781Z,100242.06
2023-01-13T02:10:32.208Z,100243.13
2023-01-13T02:13:06.598Z,100244.03
2023-01-13T02:15:40.820Z,100245.03
2023-01-13T02:18:25.910Z,100242.56
2023-01-13T02:21:12.492Z,100243.41
2023-01-13T02:24:08.626Z,100241.81
2023-01-13T02:26:56.073Z,100235.72
2023-01-13T02:30:15.491Z,100245.16
2023-01-13T02:32:55.746Z,100223.56
2023-01-13T02:35:39.554Z,100218.38
2023-01-13T02:38:08.824Z,100222.69
2023-01-13T02:40:48.795Z,100212.97
2023-01-13T02:43:57.151Z,100204.13
2023-01-13T02:46:30.915Z,100211.91
2023-01-13T02:49:04.850Z,100198.19
2023-01-13T02:51:32.955Z,100204.25
2023-01-13T02:54:06.039Z,100206.91
2023-01-13T02:56:36.190Z,100205.31
2023-01-13T02:59:03.513Z,100205.50
2023-01-13T03:01:30.020Z,100209.75
2023-01-13T03:03:56.532Z,100211.50
2023-01-13T03:06:26.446Z,100201.97
2023-01-13T03:09:09.885Z,100199.56
2023-01-13T03:12:23.473Z,100206.47
2023-01-13T03:15:06.186Z,100186.81
2023-01-13T03:17:49.933Z,100205.91
2023-01-13T03:20:27.083Z,100198.16
2023-01-13T03:23:02.345Z,100194.72
2023-01-13T03:25:36.488Z,100205.09
2023-01-13T03:28:07.085Z,100196.56
2023-01-13T03:30:42.691Z,100191.38
2023-01-13T03:33:17.946Z,100195.72
2023-01-13T03:35:49.546Z,100200.13
2023-01-13T03:38:21.707Z,100207.91
2023-01-13T03:40:53.764Z,100214.44
2023-01-13T03:43:45.637Z,100208.00
2023-01-13T03:46:19.722Z,100211.38
2023-01-13T03:48:46.665Z,100204.50
2023-01-13T03:51:18.079Z,100194.91
2023-01-13T03:53:49.957Z,100186.44
2023-01-13T03:56:20.441Z,100206.91
2023-01-13T03:58:50.434Z,100197.44
2023-01-13T04:01:35.485Z,100200.00
2023-01-13T04:04:13.490Z,100200.16
2023-01-13T04:06:54.218Z,100187.91
2023-01-13T04:09:32.454Z,100198.94
2023-01-13T04:12:11.208Z,100195.72
2023-01-13T04:14:37.817Z,100192.53
2023-01-13T04:17:05.076Z,100189.19
2023-01-13T04:19:32.978Z,100196.19
2023-01-13T04:21:59.691Z,100204.78
2023-01-13T04:24:26.388Z,100209.28
2023-01-13T04:26:52.871Z,100216.22
2023-01-13T04:29:20.324Z,100216.28
2023-01-13T04:31:46.696Z,100215.38
2023-01-13T04:34:13.366Z,100203.19
2023-01-13T04:36:39.935Z,100209.19
2023-01-13T04:39:06.446Z,100209.28
2023-01-13T04:41:52.825Z,100208.66
2023-01-13T04:44:19.336Z,100187.19
2023-01-13T04:46:46.359Z,100193.28
2023-01-13T04:49:12.786Z,100187.66
2023-01-13T04:51:39.154Z,100170.59
2023-01-13T04:54:05.582Z,100185.34
2023-01-13T04:56:32.032Z,100195.69
2023-01-13T04:58:58.402Z,100183.75
2023-01-13T05:01:24.920Z,100174.34
2023-01-13T05:03:51.368Z,100167.53
2023-01-13T05:06:17.849Z,100176.34
2023-01-13T05:08:44.203Z,100162.50
2023-01-13T05:11:29.382Z,100163.34
2023-01-13T05:14:14.141Z,100171.16
2023-01-13T05:16:59.102Z,100179.09
2023-01-13T05:19:26.084Z,100166.28
2023-01-13T05:22:11.332Z,100179.22
2023-01-13T05:24:56.277Z,100174.03
2023-01-13T05:27:22.920Z,100174.09
2023-01-13T05:29:49.259Z,100182.72
2023-01-13T05:32:15.689Z,100193.91
2023-01-13T05:34:42.057Z,100171.16
2023-01-13T05:37:10.956Z,100174.34
2023-01-13T05:39:55.906Z,100183.81
2023-01-13T05:42:41.064Z,100174.59
2023-01-13T05:45:08.117Z,100185.91
2023-01-13T05:47:34.563Z,100185.09
2023-01-13T05:50:01.049Z,100192.97
2023-01-13T05:52:28.649Z,100189.72
2023-01-13T05:54:55.162Z,100187.13
2023-01-13T05:57:22.213Z,100183.56
2023-01-13T05:59:48.670Z,100191.44
2023-01-13T06:02:15.054Z,100192.44
2023-01-13T06:04:41.529Z,100185.44
2023-01-13T06:07:07.912Z,100194.75
2023-01-13T06:09:34.386Z,100187.97
2023-01-13T06:12:00.811Z,100186.28
2023-01-13T06:14:39.867Z,100184.53
2023-01-13T06:17:10.791Z,100179.28
2023-01-13T06:19:37.572Z,100203.28
2023-01-13T06:22:11.748Z,100187.69
2023-01-13T06:24:38.119Z,100190.25
2023-01-13T06:27:05.953Z,100192.78
2023-01-13T06:29:32.411Z,100192.63
2023-01-13T06:32:00.997Z,100190.03
2023-01-13T06:34:27.467Z,100199.41
2023-01-13T06:36:55.039Z,100195.06
2023-01-13T06:39:24.803Z,100203.47
2023-01-13T06:42:12.424Z,100203.31
2023-01-13T06:44:39.512Z,100210.19
2023-01-13T06:47:06.892Z,100211.94
2023-01-13T06:49:33.604Z,100222.28
2023-01-13T06:51:59.989Z,100211.84
2023-01-13T06:54:27.770Z,100216.94
2023-01-13T06:56:54.237Z,100230.66
2023-01-13T06:59:20.611Z,100228.00
2023-01-13T07:01:47.201Z,100233.19
2023-01-13T07:04:13.835Z,100244.31
2023-01-13T07:06:40.247Z,100233.09
2023-01-13T07:09:06.989Z,100235.69
2023-01-13T07:11:33.721Z,100240.03
2023-01-13T07:14:19.799Z,100244.31
2023-01-13T07:16:46.799Z,100231.44
2023-01-13T07:19:13.551Z,100238.25
2023-01-13T07:21:39.943Z,100230.44
2023-01-13T07:24:06.621Z,100238.19
2023-01-13T07:26:33.059Z,100240.03
2023-01-13T07:29:00.791Z,100239.19
2023-01-13T07:31:27.323Z,100233.09
2023-01-13T07:33:53.837Z,100239.13
2023-01-13T07:36:20.209Z,100241.56
2023-01-13T07:38:46.606Z,100243.31
2023-01-13T07:41:33.178Z,100230.38
2023-01-13T07:44:00.406Z,100239.72
2023-01-13T07:46:27.014Z,100236.16
2023-01-13T07:48:53.627Z,100244.69
2023-01-13T07:51:20.073Z,100250.69
2023-01-13T07:53:46.581Z,100238.53
2023-01-13T07:56:13.252Z,100249.56
2023-01-13T07:58:39.674Z,100253.75
2023-01-13T08:01:12.379Z,100245.94
2023-01-13T08:03:40.638Z,100253.69
2023-01-13T08:06:07.414Z,100243.34
2023-01-13T08:08:33.961Z,100246.75
2023-01-13T08:11:01.993Z,100249.28
2023-01-13T08:13:28.547Z,100250.22
2023-01-13T08:16:04.042Z,100263.00
2023-01-13T08:18:32.024Z,100262.06
2023-01-13T08:21:02.587Z,100266.19
2023-01-13T08:23:29.053Z,100273.13
2023-01-13T08:26:00.226Z,100274.91
2023-01-13T08:28:27.146Z,100287.91
2023-01-13T08:30:54.270Z,100294.97
2023-01-13T08:33:21.026Z,100290.78
2023-01-13T08:35:49.119Z,100298.72
2023-01-13T08:38:15.596Z,100309.13
2023-01-13T08:40:42.156Z,100308.44
2023-01-13T08:43:08.571Z,100312.84
2023-01-13T08:45:35.995Z,100315.59
2023-01-13T08:48:02.935Z,100306.28
2023-01-13T08:50:29.508Z,100318.47
2023-01-13T08:52:55.967Z,100324.69
2023-01-13T08:55:22.616Z,100323.91
2023-01-13T08:57:49.084Z,100335.19
2023-01-13T09:00:17.135Z,100316.22
2023-01-13T09:02:45.044Z,100336.84
2023-01-13T09:05:11.644Z,100327.44
2023-01-13T09:07:38.664Z,100348.13
2023-01-13T09:10:06.992Z,100333.50
2023-01-13T09:12:51.987Z,100354.31
2023-01-13T09:15:18.859Z,100349.81
2023-01-13T09:17:45.889Z,100346.31
2023-01-13T09:20:12.847Z,100342.81
2023-01-13T09:22:40.692Z,100328.81
2023-01-13T09:25:07.890Z,100339.03
2023-01-13T09:27:34.247Z,100345.81
2023-01-13T09:30:00.655Z,100337.13
2023-01-13T09:32:27.031Z,100337.22
2023-01-13T09:35:02.968Z,100335.53
2023-01-13T09:37:38.340Z,100348.31
2023-01-13T09:40:16.892Z,100348.25
2023-01-13T09:43:12.123Z,100363.66
2023-01-13T09:45:44.137Z,100363.50
2023-01-13T09:48:22.521Z,100348.81
2023-01-13T09:51:06.500Z,100387.59
2023-01-13T09:53:40.446Z,100385.84
2023-01-13T09:56:10.511Z,100385.78
2023-01-13T09:58:39.642Z,100380.53
2023-01-13T10:01:34.009Z,100385.63
2023-01-13T10:04:11.606Z,100373.53
2023-01-13T10:06:43.669Z,100382.06
2023-01-13T10:09:46.769Z,100394.94
2023-01-13T10:12:37.832Z,100397.75
2023-01-13T10:15:04.718Z,100407.53
2023-01-13T10:17:45.791Z,100400.75
2023-01-13T10:20:24.797Z,100401.88
2023-01-13T10:23:19.004Z,100409.72
2023-01-13T10:26:11.546Z,100414.19
2023-01-13T10:28:37.968Z,100408.94
2023-01-13T10:31:11.863Z,100424.41
2023-01-13T10:33:38.443Z,100429.56
2023-01-13T10:36:22.917Z,100431.06
2023-01-13T10:38:51.028Z,100426.66
2023-01-13T10:41:20.032Z,100424.00
2023-01-13T10:43:52.427Z,100428.97
2023-01-13T10:46:21.507Z,100430.56
2023-01-13T10:48:56.000Z,100429.59
2023-01-13T10:51:22.451Z,100432.19
2023-01-13T10:53:59.767Z,100435.47
2023-01-13T10:56:30.234Z,100436.31
2023-01-13T10:59:23.248Z,100444.56
2023-01-13T11:01:58.553Z,100435.75
2023-01-13T11:05:00.579Z,100435.31
2023-01-13T11:07:38.503Z,100457.59
2023-01-13T11:10:23.746Z,100455.66
2023-01-13T11:13:04.245Z,100463.31
2023-01-13T11:15:43.262Z,100465.72
2023-01-13T11:18:26.771Z,100465.56
2023-01-13T11:20:56.624Z,100462.06
2023-01-13T11:23:30.281Z,100465.50
2023-01-13T11:26:04.246Z,100453.22
2023-01-13T11:29:15.371Z,100466.91
2023-01-13T11:31:52.123Z,100467.66
2023-01-13T11:34:35.282Z,100463.25
2023-01-13T11:37:09.560Z,100469.19
2023-01-13T11:40:05.633Z,100468.22
2023-01-13T11:42:46.373Z,100472.38
2023-01-13T11:45:27.314Z,100476.66
2023-01-13T11:47:57.635Z,100465.38
2023-01-13T11:50:42.925Z,100479.88
2023-01-13T11:53:22.874Z,100499.63
2023-01-13T11:55:58.438Z,100492.75
2023-01-13T11:58:49.442Z,100499.63
2023-01-13T12:01:35.440Z,100497.72
2023-01-13T12:04:26.595Z,100497.72
2023-01-13T12:07:01.980Z,100499.41
2023-01-13T12:10:00.502Z,100501.09
2023-01-13T12:12:58.356Z,100505.34
2023-01-13T12:15:35.746Z,100521.84
2023-01-13T12:18:40.508Z,100522.66
2023-01-13T12:21:22.210Z,100531.28
2023-01-13T12:24:17.716Z,100522.59
2023-01-13T12:27:03.608Z,100527.03
2023-01-13T12:29:34.553Z,100530.38
2023-01-13T12:32:04.714Z,100530.38
2023-01-13T12:34:41.664Z,100536.47
2023-01-13T12:37:22.611Z,100538.94
2023-01-13T12:40:05.927Z,100529.34
2023-01-13T12:43:26.716Z,100540.38
2023-01-13T12:45:53.256Z,100545.44
2023-01-13T12:48:45.544Z,100558.03
2023-01-13T12:51:56.521Z,100559.38
2023-01-13T12:54:41.282Z,100547.06
2023-01-13T12:57:16.847Z,100557.31
2023-01-13T12:59:49.097Z,100564.25
2023-01-13T13:02:15.992Z,100566.00
2023-01-13T13:04:44.268Z,100571.19
2023-01-13T13:07:16.651Z,100571.13
2023-01-13T13:09:49.336Z,100576.38
2023-01-13T13:12:49.819Z,100577.44
2023-01-13T13:15:21.937Z,100586.97
2023-01-13T13:18:03.713Z,100593.78
2023-01-13T13:20:53.932Z,100597.97
2023-01-13T13:23:36.491Z,100615.94
2023-01-13T13:26:26.664Z,100598.38
2023-01-13T13:29:14.637Z,100619.84
2023-01-13T13:31:59.704Z,100611.97
2023-01-13T13:34:38.323Z,100620.41
2023-01-13T13:37:23.555Z,100618.56
2023-01-13T13:40:08.542Z,100614.44
2023-01-13T13:43:02.519Z,100631.84
2023-01-13T13:45:47.357Z,100632.13
2023-01-13T13:48:30.627Z,100638.38
2023-01-13T13:51:04.630Z,100647.16
2023-01-13T13:53:35.282Z,100650.75
2023-01-13T13:56:05.043Z,100655.94
2023-01-13T13:58:35.635Z,100647.28
2023-01-13T14:01:04.515Z,100668.03
2023-01-13T14:03:34.434Z,100676.69
2023-01-13T14:06:02.659Z,100659.41
2023-01-13T14:08:32.703Z,100670.72
2023-01-13T14:10:59.297Z,100698.44
2023-01-13T14:13:29.726Z,100677.69
2023-01-13T14:15:59.063Z,100690.66
2023-01-13T14:18:27.050Z,100688.19
2023-01-13T14:20:54.654Z,100701.22
2023-01-13T14:23:26.438Z,100709.78
2023-01-13T14:25:53.451Z,100718.47
2023-01-13T14:28:32.326Z,100720.31
2023-01-13T14:30:59.134Z,100728.16
2023-01-13T14:33:38.892Z,100723.88
2023-01-13T14:36:19.394Z,100729.97
2023-01-13T14:38:49.419Z,100753.47
2023-01-13T14:41:25.729Z,100751.00
2023-01-13T14:43:56.873Z,100758.00
2023-01-13T14:46:25.481Z,100743.56
2023-01-13T14:48:59.762Z,100759.50
2023-01-13T14:51:29.313Z,100747.00
2023-01-13T14:53:57.026Z,100757.59
2023-01-13T14:56:42.678Z,100753.13
2023-01-13T14:59:40.083Z,100770.28
2023-01-13T15:02:24.944Z,100785.00
2023-01-13T15:04:58.599Z,100768.59
2023-01-13T15:07:28.304Z,100780.81
2023-01-13T15:10:04.246Z,100785.22
2023-01-13T15:12:40.867Z,100799.19
2023-01-13T15:15:20.234Z,100792.28
2023-01-13T15:17:46.857Z,100801.84
2023-01-13T15:20:15.271Z,100809.47
2023-01-13T15:22:41.664Z,100808.56
2023-01-13T15:25:12.029Z,100827.47
2023-01-13T15:27:38.963Z,100822.22
2023-01-13T15:30:25.313Z,100829.00
2023-01-13T15:32:56.184Z,100841.28
2023-01-13T15:35:24.511Z,100840.56
2023-01-13T15:37:51.143Z,100857.00
2023-01-13T15:40:20.539Z,100864.91
2023-01-13T15:43:06.010Z,100864.94
2023-01-13T15:45:53.296Z,100884.75
2023-01-13T15:48:21.851Z,100887.41
2023-01-13T15:50:48.381Z,100887.44
2023-01-13T15:53:15.544Z,100885.97
2023-01-13T15:55:44.999Z,100888.81
2023-01-13T15:58:12.937Z,100889.81
2023-01-13T16:00:40.250Z,100899.22
2023-01-13T16:03:07.020Z,100907.78
2023-01-13T16:05:33.436Z,100912.00
2023-01-13T16:07:59.886Z,100914.59
2023-01-13T16:10:28.305Z,100920.50
2023-01-13T16:12:57.732Z,100923.09
2023-01-13T16:15:25.869Z,100925.63
2023-01-13T16:18:00.964Z,100933.28
2023-01-13T16:20:27.642Z,100937.53
2023-01-13T16:22:53.995Z,100934.94
2023-01-13T16:25:22.838Z,100929.06
2023-01-13T16:27:49.434Z,100924.78
2023-01-13T16:30:26.528Z,100943.06
2023-01-13T16:32:52.953Z,100952.63
2023-01-13T16:35:19.501Z,100944.81
2023-01-13T16:37:49.228Z,100951.66
2023-01-13T16:40:31.371Z,100961.16
2023-01-13T16:42:58.234Z,100956.00
2023-01-13T16:45:25.210Z,100972.53
2023-01-13T16:47:51.742Z,100959.63
2023-01-13T16:50:42.287Z,100987.13
2023-01-13T16:53:10.588Z,100988.25
2023-01-13T16:55:41.330Z,100991.47
2023-01-13T16:58:17.421Z,100993.69
2023-01-13T17:00:46.832Z,100997.41
2023-01-13T17:03:15.036Z,100988.97
2023-01-13T17:05:43.160Z,100992.66
2023-01-13T17:08:15.347Z,100995.47
2023-01-13T17:10:41.751Z,101005.94
2023-01-13T17:13:16.002Z,101012.09
2023-01-13T17:15:43.706Z,101007.78
2023-01-13T17:18:11.442Z,101010.47
2023-01-13T17:20:37.914Z,101019.13
2023-01-13T17:23:04.325Z,101019.94
2023-01-13T17:25:30.742Z,101026.03
2023-01-13T17:27:57.629Z,101020.94
2023-01-13T17:30:24.275Z,101033.97
2023-01-13T17:32:50.708Z,101033.09
2023-01-13T17:35:19.406Z,101032.28
2023-01-13T17:37:46.078Z,101040.06
2023-01-13T17:40:12.879Z,101052.31
2023-01-13T17:42:39.391Z,101052.41
2023-01-13T17:45:06.934Z,101045.63
2023-01-13T17:47:33.407Z,101047.41
2023-01-13T17:49:59.931Z,101045.00
2023-01-13T17:52:26.399Z,101054.50
2023-01-13T17:54:52.933Z,101051.13
2023-01-13T17:57:19.381Z,101052.06
2023-01-13T17:59:47.932Z,101065.97
2023-01-13T18:02:14.639Z,101065.19
2023-01-13T18:04:42.329Z,101068.56
2023-01-13T18:07:08.789Z,101059.94
2023-01-13T18:09:35.212Z,101068.56
2023-01-13T18:12:01.888Z,101071.16
2023-01-13T18:14:28.313Z,101066.81
2023-01-13T18:16:54.783Z,101074.72
2023-01-13T18:19:39.903Z,101068.84
2023-01-13T18:22:24.717Z,101081.09
2023-01-13T18:25:09.538Z,101088.06
2023-01-13T18:27:38.436Z,101086.47
2023-01-13T18:30:06.529Z,101083.97
2023-01-13T18:32:33.608Z,101095.22
2023-01-13T18:35:10.004Z,101090.88
2023-01-13T18:37:41.978Z,101102.94
2023-01-13T18:40:11.075Z,101107.19
2023-01-13T18:42:56.131Z,101109.78
2023-01-13T18:45:31.576Z,101116.59
2023-01-13T18:48:00.418Z,101117.41
2023-01-13T18:50:28.041Z,101117.34
2023-01-13T18:52:54.816Z,101123.28
2023-01-13T18:55:21.899Z,101122.16
2023-01-13T18:57:48.480Z,101111.66
2023-01-13T19:00:17.596Z,101120.97
2023-01-13T19:02:45.213Z,101120.81
2023-01-13T19:05:11.695Z,101126.78
2023-01-13T19:07:39.030Z,101128.44
2023-01-13T19:10:09.507Z,101136.94
2023-01-13T19:12:35.978Z,101143.09
2023-01-13T19:15:02.897Z,101149.09
2023-01-13T19:17:34.546Z,101140.41
2023-01-13T19:20:01.741Z,101153.44
2023-01-13T19:22:33.644Z,101151.69
2023-01-13T19:25:01.644Z,101144.91
2023-01-13T19:27:30.200Z,101154.31
2023-01-13T19:30:03.608Z,101156.88
2023-01-13T19:32:32.413Z,101157.81
2023-01-13T19:34:59.634Z,101150.88
2023-01-13T19:37:30.493Z,101168.06
2023-01-13T19:40:00.478Z,101167.25
2023-01-13T19:42:46.215Z,101176.78
2023-01-13T19:45:26.604Z,101211.88
2023-01-13T19:47:54.152Z,101194.53
2023-01-13T19:50:20.531Z,101190.41
2023-01-13T19:52:46.919Z,101193.91
2023-01-13T19:55:13.355Z,101199.88
2023-01-13T19:57:40.698Z,101199.03
2023-01-13T20:00:08.779Z,101200.88
2023-01-13T20:02:36.889Z,101196.66
2023-01-13T20:05:06.468Z,101208.78
2023-01-13T20:07:33.432Z,101219.03
2023-01-13T20:10:01.567Z,101217.13
2023-01-13T20:12:29.394Z,101227.41
2023-01-13T20:14:56.573Z,101228.97
2023-01-13T20:17:26.841Z,101232.44
2023-01-13T20:19:53.634Z,101237.84
2023-01-13T20:22:20.647Z,101247.44
2023-01-13T20:24:48.589Z,101235.22
2023-01-13T20:27:15.202Z,101242.19
2023-01-13T20:29:41.836Z,101240.69
2023-01-13T20:32:08.237Z,101234.03
2023-01-13T20:34:34.836Z,101233.28
2023-01-13T20:37:01.326Z,101224.03
2023-01-13T20:39:27.954Z,101235.38
2023-01-13T20:42:13.878Z,101249.16
2023-01-13T20:44:41.135Z,101250.78
2023-01-13T20:47:08.127Z,101272.25
2023-01-13T20:49:36.780Z,101272.13
2023-01-13T20:52:09.298Z,101278.94
2023-01-13T20:54:36.763Z,101277.41
2023-01-13T20:57:04.860Z,101278.38
2023-01-13T20:59:31.295Z,101273.28
2023-01-13T21:01:58.051Z,101286.31
2023-01-13T21:04:24.525Z,101288.16
2023-01-13T21:06:51.071Z,101294.28
2023-01-13T21:09:17.578Z,101298.66
2023-01-13T21:12:02.359Z,101305.63
2023-01-13T21:14:47.631Z,101309.06
2023-01-13T21:17:34.204Z,101301.25
2023-01-13T21:20:02.300Z,101308.22
2023-01-13T21:22:30.033Z,101309.00
2023-01-13T21:24:57.860Z,101311.66
2023-01-13T21:27:24.964Z,101315.13
2023-01-13T21:29:51.497Z,101316.03
2023-01-13T21:32:17.869Z,101319.50
2023-01-13T21:34:44.308Z,101317.81
2023-01-13T21:37:10.717Z,101317.84
2023-01-13T21:39:37.120Z,101325.63
2023-01-13T21:42:21.960Z,101322.19
2023-01-13T21:45:07.254Z,101331.59
2023-01-13T21:47:48.943Z,101330.75
2023-01-13T21:50:21.129Z,101328.88
2023-01-13T21:52:48.657Z,101335.66
2023-01-13T21:55:28.265Z,101339.03
2023-01-13T21:58:21.046Z,101333.78
2023-01-13T22:00:49.129Z,101347.63
2023-01-13T22:03:16.002Z,101338.91
2023-01-13T22:05:42.454Z,101346.63
2023-01-13T22:08:12.427Z,101340.50
2023-01-13T22:10:56.952Z,101343.91
2023-01-13T22:13:41.942Z,101351.59
2023-01-13T22:16:09.172Z,101362.69
2023-01-13T22:18:35.568Z,101367.81
2023-01-13T22:21:01.970Z,101361.78
2023-01-13T22:23:28.398Z,101366.94
2023-01-13T22:26:05.965Z,101373.03
2023-01-13T22:28:40.618Z,101366.22
2023-01-13T22:31:12.038Z,101373.09
2023-01-13T22:33:39.822Z,101376.50
2023-01-13T22:36:07.828Z,101380.81
2023-01-13T22:38:35.093Z,101376.44
2023-01-13T22:41:06.256Z,101380.56
2023-01-13T22:43:33.452Z,101383.25
2023-01-13T22:46:02.271Z,101389.28
2023-01-13T22:48:28.894Z,101379.72
2023-01-13T22:50:56.192Z,101381.47
2023-01-13T22:53:23.148Z,101380.66
2023-01-13T22:55:59.577Z,101390.09
2023-01-13T22:58:26.643Z,101391.03
2023-01-13T23:00:53.540Z,101394.53
2023-01-13T23:03:19.941Z,101391.06
2023-01-13T23:05:46.406Z,101391.97
2023-01-13T23:08:13.153Z,101396.31
2023-01-13T23:10:40.919Z,101399.75
2023-01-13T23:13:08.634Z,101402.31
2023-01-13T23:15:35.407Z,101394.41
2023-01-13T23:18:02.745Z,101400.44
2023-01-13T23:20:30.605Z,101406.38
2023-01-13T23:23:00.093Z,101390.84
2023-01-13T23:25:26.687Z,101392.50
2023-01-13T23:27:53.120Z,101401.13
2023-01-13T23:30:19.602Z,101387.25
2023-01-13T23:32:45.993Z,101377.69
2023-01-13T23:35:12.704Z,101369.03
2023-01-13T23:37:39.258Z,101374.25
2023-01-13T23:40:06.660Z,101376.84
2023-01-13T23:42:33.152Z,101367.38
2023-01-13T23:44:59.512Z,101370.00
2023-01-13T23:47:25.968Z,101369.16
2023-01-13T23:49:52.444Z,101378.63
2023-01-13T23:52:18.861Z,101376.03
2023-01-13T23:54:45.368Z,101372.59
2023-01-13T23:57:11.819Z,101376.91
2023-01-13T23:59:38.186Z,101382.91
